createdAt,value
2022-11-02T00:00:20.328Z,8.10
2022-11-02T00:03:08.121Z,8.13
2022-11-02T00:05:55.731Z,7.68
2022-11-02T00:08:42.813Z,7.57
2022-11-02T00:11:30.098Z,7.28
2022-11-02T00:14:17.188Z,7.20
2022-11-02T00:17:07.661Z,8.65
2022-11-02T00:19:54.832Z,8.15
2022-11-02T00:22:43.026Z,8.45
2022-11-02T00:25:37.468Z,8.93
2022-11-02T00:28:24.914Z,6.80
2022-11-02T00:31:12.091Z,6.38
2022-11-02T00:33:59.355Z,6.53
2022-11-02T00:36:55.204Z,6.18
2022-11-02T00:39:42.768Z,8.05
2022-11-02T00:42:29.983Z,6.78
2022-11-02T00:45:17.455Z,6.22
2022-11-02T00:48:05.463Z,5.97
2022-11-02T00:50:55.517Z,6.03
2022-11-02T00:53:45.182Z,4.88
2022-11-02T00:56:32.309Z,4.50
2022-11-02T00:59:21.955Z,5.35
2022-11-02T01:02:11.917Z,5.03
2022-11-02T01:05:01.400Z,4.97
2022-11-02T01:07:52.117Z,5.78
2022-11-02T01:10:48.360Z,4.60
2022-11-02T01:13:35.676Z,4.38
2022-11-02T01:16:22.983Z,4.32
2022-11-02T01:19:11.522Z,4.55
2022-11-02T01:21:58.850Z,3.95
2022-11-02T01:24:45.958Z,4.65
2022-11-02T01:27:33.037Z,4.68
2022-11-02T01:30:20.324Z,4.03
2022-11-02T01:33:07.414Z,4.57
2022-11-02T01:35:55.487Z,4.40
2022-11-02T01:38:42.562Z,4.47
2022-11-02T01:41:29.934Z,3.03
2022-11-02T01:44:34.679Z,3.42
2022-11-02T01:47:32.212Z,3.60
2022-11-02T01:50:22.736Z,4.15
2022-11-02T01:53:10.045Z,3.47
2022-11-02T01:55:57.347Z,3.47
2022-11-02T01:58:47.675Z,4.00
2022-11-02T02:01:34.978Z,4.20
2022-11-02T02:04:26.153Z,3.25
2022-11-02T02:07:17.175Z,3.60
2022-11-02T02:10:05.324Z,3.70
2022-11-02T02:12:52.771Z,3.72
2022-11-02T02:15:57.791Z,3.47
2022-11-02T02:18:52.411Z,3.70
2022-11-02T02:21:54.831Z,3.92
2022-11-02T02:24:58.222Z,3.53
2022-11-02T02:28:07.215Z,3.90
2022-11-02T02:30:56.882Z,3.90
2022-11-02T02:33:46.826Z,4.15
2022-11-02T02:36:57.104Z,3.17
2022-11-02T02:39:57.671Z,3.28
2022-11-02T02:42:51.770Z,3.17
2022-11-02T02:45:44.694Z,2.80
2022-11-02T02:48:34.163Z,3.38
2022-11-02T02:51:28.704Z,2.70
2022-11-02T02:54:27.794Z,2.78
2022-11-02T02:57:18.517Z,2.25
2022-11-02T03:00:12.001Z,2.30
2022-11-02T03:03:02.901Z,2.80
2022-11-02T03:06:16.939Z,2.38
2022-11-02T03:09:32.739Z,2.63
2022-11-02T03:12:35.254Z,2.45
2022-11-02T03:15:48.952Z,3.25
2022-11-02T03:18:53.627Z,2.22
2022-11-02T03:21:43.472Z,2.60
2022-11-02T03:24:37.279Z,2.10
2022-11-02T03:27:38.668Z,2.88
2022-11-02T03:30:31.192Z,2.33
2022-11-02T03:33:32.301Z,2.22
2022-11-02T03:36:30.134Z,1.98
2022-11-02T03:39:25.042Z,3.22
2022-11-02T03:42:18.833Z,3.05
2022-11-02T03:45:19.090Z,2.83
2022-11-02T03:48:10.897Z,3.17
2022-11-02T03:51:03.529Z,3.10
2022-11-02T03:54:08.316Z,4.75
2022-11-02T03:56:58.281Z,3.67
2022-11-02T03:59:45.516Z,4.15
2022-11-02T04:02:37.651Z,3.65
2022-11-02T04:05:35.609Z,3.67
2022-11-02T04:08:37.671Z,2.67
2022-11-02T04:11:43.916Z,2.53
2022-11-02T04:14:40.298Z,2.65
2022-11-02T04:17:46.065Z,2.60
2022-11-02T04:20:35.348Z,2.35
2022-11-02T04:23:40.823Z,2.40
2022-11-02T04:26:28.152Z,2.38
2022-11-02T04:29:15.221Z,2.53
2022-11-02T04:32:08.468Z,2.55
2022-11-02T04:34:55.589Z,3.05
2022-11-02T04:38:05.213Z,2.97
2022-11-02T04:41:13.754Z,2.60
2022-11-02T04:44:01.584Z,2.85
2022-11-02T04:46:51.936Z,2.83
2022-11-02T04:49:38.937Z,2.72
2022-11-02T04:52:26.018Z,2.67
2022-11-02T04:55:13.088Z,3.10
2022-11-02T04:58:00.251Z,3.45
2022-11-02T05:00:49.802Z,3.28
2022-11-02T05:03:36.856Z,2.70
2022-11-02T05:06:24.876Z,3.05
2022-11-02T05:09:12.077Z,2.40
2022-11-02T05:11:59.583Z,2.88
2022-11-02T05:14:46.611Z,2.95
2022-11-02T05:17:33.905Z,3.15
2022-11-02T05:20:21.142Z,3.17
2022-11-02T05:23:08.680Z,2.88
2022-11-02T05:26:07.352Z,2.80
2022-11-02T05:28:54.439Z,3.22
2022-11-02T05:31:45.715Z,3.53
2022-11-02T05:34:33.187Z,2.72
2022-11-02T05:37:20.268Z,3.10
2022-11-02T05:40:08.784Z,2.70
2022-11-02T05:43:02.106Z,3.35
2022-11-02T05:45:57.799Z,3.47
2022-11-02T05:48:44.992Z,3.80
2022-11-02T05:51:32.050Z,2.67
2022-11-02T05:54:20.908Z,2.60
2022-11-02T05:57:08.002Z,2.55
2022-11-02T05:59:56.150Z,2.50
2022-11-02T06:02:43.389Z,2.47
2022-11-02T06:05:30.585Z,2.60
2022-11-02T06:08:22.394Z,2.28
2022-11-02T06:11:13.201Z,2.37
2022-11-02T06:14:00.683Z,2.60
2022-11-02T06:16:47.864Z,2.67
2022-11-02T06:19:37.086Z,3.20
2022-11-02T06:22:24.268Z,2.22
2022-11-02T06:25:12.062Z,2.95
2022-11-02T06:27:59.966Z,3.00
2022-11-02T06:30:54.661Z,3.13
2022-11-02T06:33:42.132Z,3.08
2022-11-02T06:36:31.346Z,3.10
2022-11-02T06:39:18.454Z,3.28
2022-11-02T06:42:07.848Z,2.75
2022-11-02T06:44:55.518Z,3.00
2022-11-02T06:47:42.675Z,3.13
2022-11-02T06:50:33.030Z,3.30
2022-11-02T06:53:27.469Z,3.20
2022-11-02T06:56:15.036Z,2.10
2022-11-02T06:59:04.635Z,2.50
2022-11-02T07:02:02.345Z,3.33
2022-11-02T07:04:53.244Z,3.28
2022-11-02T07:07:43.807Z,2.72
2022-11-02T07:10:38.128Z,3.20
2022-11-02T07:13:25.762Z,2.17
2022-11-02T07:16:12.948Z,2.58
2022-11-02T07:19:01.447Z,2.38
2022-11-02T07:21:56.157Z,2.60
2022-11-02T07:24:43.301Z,2.38
2022-11-02T07:27:30.793Z,2.40
2022-11-02T07:30:20.720Z,2.47
2022-11-02T07:33:20.165Z,2.67
2022-11-02T07:36:10.439Z,2.38
2022-11-02T07:38:58.937Z,3.60
2022-11-02T07:41:53.063Z,2.50
2022-11-02T07:44:40.374Z,2.45
2022-11-02T07:47:27.805Z,2.60
2022-11-02T07:50:22.823Z,2.47
2022-11-02T07:53:12.769Z,2.42
2022-11-02T07:56:04.430Z,2.63
2022-11-02T07:58:54.057Z,2.55
2022-11-02T08:01:43.691Z,2.53
2022-11-02T08:04:40.871Z,2.30
2022-11-02T08:07:34.656Z,2.03
2022-11-02T08:10:28.070Z,2.35
2022-11-02T08:13:21.199Z,1.88
2022-11-02T08:16:08.438Z,2.15
2022-11-02T08:19:07.673Z,2.10
2022-11-02T08:21:57.265Z,2.67
2022-11-02T08:24:44.619Z,2.13
2022-11-02T08:27:31.837Z,1.80
2022-11-02T08:30:21.791Z,1.95
2022-11-02T08:33:15.829Z,2.13
2022-11-02T08:36:09.718Z,1.52
2022-11-02T08:39:27.500Z,2.33
2022-11-02T08:42:13.495Z,1.90
2022-11-02T08:45:02.831Z,2.00
2022-11-02T08:47:50.700Z,2.42
2022-11-02T08:50:38.030Z,2.10
2022-11-02T08:53:25.329Z,2.00
2022-11-02T08:56:12.508Z,2.17
2022-11-02T08:58:59.739Z,2.75
2022-11-02T09:01:47.034Z,1.98
2022-11-02T09:04:34.704Z,2.28
2022-11-02T09:07:23.184Z,1.85
2022-11-02T09:10:10.457Z,2.00
2022-11-02T09:13:00.338Z,2.20
2022-11-02T09:15:50.267Z,2.50
2022-11-02T09:18:40.250Z,2.42
2022-11-02T09:21:27.555Z,2.15
2022-11-02T09:24:16.963Z,2.13
2022-11-02T09:27:04.323Z,2.08
2022-11-02T09:29:51.543Z,1.85
2022-11-02T09:32:39.860Z,2.13
2022-11-02T09:35:31.060Z,1.60
2022-11-02T09:38:18.719Z,2.10
2022-11-02T09:41:22.639Z,1.70
2022-11-02T09:44:37.686Z,2.33
2022-11-02T09:50:47.305Z,1.75
2022-11-02T09:54:02.722Z,2.38
2022-11-02T09:56:52.370Z,1.55
2022-11-02T09:59:43.651Z,2.58
2022-11-02T10:02:50.494Z,2.17
2022-11-02T10:05:50.108Z,1.67
2022-11-02T10:09:10.746Z,1.50
2022-11-02T10:12:18.993Z,1.98
2022-11-02T10:15:15.104Z,1.90
2022-11-02T10:18:03.978Z,2.20
2022-11-02T10:20:59.738Z,2.13
2022-11-02T10:23:59.468Z,1.98
2022-11-02T10:26:47.841Z,1.90
2022-11-02T10:30:02.311Z,2.45
2022-11-02T10:32:56.121Z,2.30
2022-11-02T10:36:17.347Z,1.98
2022-11-02T10:39:41.014Z,2.35
2022-11-02T10:43:01.586Z,1.98
2022-11-02T10:46:14.086Z,1.85
2022-11-02T10:49:14.902Z,2.03
2022-11-02T10:52:02.066Z,2.22
2022-11-02T10:54:53.475Z,2.03
2022-11-02T10:57:40.811Z,1.55
2022-11-02T11:00:36.141Z,2.08
2022-11-02T11:03:23.253Z,2.28
2022-11-02T11:06:15.204Z,2.00
2022-11-02T11:09:32.716Z,1.85
2022-11-02T11:12:26.557Z,1.90
2022-11-02T11:21:42.378Z,2.33
2022-11-02T11:24:37.087Z,1.85
2022-11-02T11:27:25.562Z,2.00
2022-11-02T11:30:58.884Z,2.17
2022-11-02T11:34:02.044Z,2.00
2022-11-02T11:36:49.236Z,2.65
2022-11-02T11:39:39.524Z,1.70
2022-11-02T11:42:30.969Z,1.98
2022-11-02T11:45:22.908Z,1.98
2022-11-02T11:48:24.554Z,1.77
2022-11-02T11:51:30.032Z,2.08
2022-11-02T11:54:30.946Z,1.48
2022-11-02T11:57:34.750Z,1.35
2022-11-02T12:00:29.278Z,1.70
2022-11-02T12:03:18.898Z,1.58
2022-11-02T12:06:18.936Z,1.08
2022-11-02T12:09:34.294Z,1.88
2022-11-02T12:12:45.558Z,1.42
2022-11-02T12:15:42.040Z,1.52
2022-11-02T12:18:45.376Z,1.65
2022-11-02T12:22:05.853Z,1.13
2022-11-02T12:25:14.273Z,1.55
2022-11-02T12:28:20.720Z,2.42
2022-11-02T12:31:19.586Z,1.50
2022-11-02T12:34:15.228Z,1.40
2022-11-02T12:37:41.389Z,1.58
2022-11-02T12:41:03.753Z,1.77
2022-11-02T12:44:04.618Z,1.80
2022-11-02T12:47:35.808Z,1.90
2022-11-02T12:50:23.217Z,1.40
2022-11-02T12:53:25.662Z,1.50
2022-11-02T12:56:26.649Z,1.67
2022-11-02T12:59:26.202Z,1.60
2022-11-02T13:02:21.925Z,1.23
2022-11-02T13:05:18.388Z,1.55
2022-11-02T13:08:24.920Z,1.98
2022-11-02T13:11:34.448Z,1.40
2022-11-02T13:14:24.984Z,1.30
2022-11-02T13:17:22.790Z,1.75
2022-11-02T13:20:26.472Z,1.30
2022-11-02T13:23:29.249Z,1.42
2022-11-02T13:29:48.763Z,1.30
2022-11-02T13:32:49.919Z,1.67
2022-11-02T13:35:43.885Z,1.48
2022-11-02T13:38:53.503Z,1.40
2022-11-02T13:41:56.865Z,1.70
2022-11-02T13:45:15.062Z,1.33
2022-11-02T13:51:51.812Z,2.28
2022-11-02T13:54:41.448Z,1.33
2022-11-02T13:57:34.186Z,1.80
2022-11-02T14:03:20.936Z,3.20
2022-11-02T14:06:14.341Z,2.30
2022-11-02T14:09:10.477Z,1.48
2022-11-02T14:12:25.178Z,1.80
2022-11-02T14:15:15.409Z,1.63
2022-11-02T14:18:13.141Z,1.42
2022-11-02T14:21:38.594Z,1.23
2022-11-02T14:24:37.767Z,1.42
2022-11-02T14:27:24.971Z,1.75
2022-11-02T14:30:41.883Z,1.38
2022-11-02T14:34:08.924Z,1.40
2022-11-02T14:37:28.235Z,1.48
2022-11-02T14:40:34.795Z,1.52
2022-11-02T14:43:45.326Z,1.75
2022-11-02T14:46:56.761Z,1.50
2022-11-02T14:50:06.878Z,1.52
2022-11-02T14:53:09.193Z,1.50
2022-11-02T14:55:57.159Z,1.05
2022-11-02T14:58:55.460Z,1.98
2022-11-02T15:02:24.567Z,1.50
2022-11-02T15:05:23.880Z,1.38
2022-11-02T15:08:20.019Z,1.77
2022-11-02T15:11:44.775Z,1.80
2022-11-02T15:14:44.011Z,1.30
2022-11-02T15:17:31.583Z,1.30
2022-11-02T15:20:33.550Z,1.58
2022-11-02T15:23:31.581Z,1.60
2022-11-02T15:26:31.396Z,1.42
2022-11-02T15:29:27.556Z,1.98
2022-11-02T15:32:23.103Z,1.33
2022-11-02T15:35:36.109Z,1.70
2022-11-02T15:38:33.763Z,1.40
2022-11-02T15:41:48.933Z,1.70
2022-11-02T15:44:55.889Z,1.70
2022-11-02T15:48:08.273Z,1.88
2022-11-02T15:50:56.286Z,2.15
2022-11-02T15:54:15.990Z,1.50
2022-11-02T15:57:15.064Z,2.10
2022-11-02T16:00:14.570Z,2.22
2022-11-02T16:03:11.351Z,2.17
2022-11-02T16:06:03.216Z,2.50
2022-11-02T16:08:56.355Z,2.53
2022-11-02T16:11:43.532Z,1.80
2022-11-02T16:14:32.461Z,1.80
2022-11-02T16:17:27.799Z,2.20
2022-11-02T16:20:22.755Z,2.33
2022-11-02T16:23:22.355Z,3.00
2022-11-02T16:26:22.809Z,3.40
2022-11-02T16:29:10.719Z,2.75
2022-11-02T16:32:00.539Z,3.30
2022-11-02T16:34:48.021Z,2.83
2022-11-02T16:37:37.545Z,2.70
2022-11-02T16:40:24.874Z,3.53
2022-11-02T16:43:14.783Z,3.38
2022-11-02T16:46:04.263Z,3.58
2022-11-02T16:49:21.265Z,3.83
2022-11-02T16:52:39.032Z,4.15
2022-11-02T16:55:59.467Z,4.18
2022-11-02T16:58:55.790Z,5.13
2022-11-02T17:01:46.277Z,4.88
2022-11-02T17:04:44.014Z,4.03
2022-11-02T17:07:46.444Z,4.25
2022-11-02T17:10:36.327Z,4.20
2022-11-02T17:13:27.578Z,4.07
2022-11-02T17:16:24.053Z,3.25
2022-11-02T17:19:40.238Z,3.20
2022-11-02T17:22:31.444Z,3.20
2022-11-02T17:25:28.428Z,3.30
2022-11-02T17:28:45.550Z,3.05
2022-11-02T17:31:41.335Z,4.05
2022-11-02T17:34:31.968Z,3.88
2022-11-02T17:37:25.137Z,7.80
2022-11-02T17:40:13.002Z,6.38
2022-11-02T17:43:01.207Z,4.93
2022-11-02T17:45:59.457Z,5.90
2022-11-02T17:48:49.263Z,5.93
2022-11-02T17:51:37.395Z,6.85
2022-11-02T17:54:28.020Z,6.80
2022-11-02T17:57:16.235Z,8.13
2022-11-02T18:00:03.976Z,6.55
2022-11-02T18:02:54.712Z,8.48
2022-11-02T18:05:50.003Z,8.50
2022-11-02T18:09:01.922Z,8.75
2022-11-02T18:11:49.955Z,8.23
2022-11-02T18:14:40.680Z,6.10
2022-11-02T18:17:34.751Z,6.22
2022-11-02T18:20:26.144Z,6.15
2022-11-02T18:23:19.954Z,7.35
2022-11-02T18:26:09.770Z,6.50
2022-11-02T18:29:33.101Z,10.10
2022-11-02T18:35:13.718Z,12.68
2022-11-02T18:38:01.243Z,15.98
2022-11-02T18:40:48.411Z,11.00
2022-11-02T18:43:36.099Z,12.70
2022-11-02T18:46:26.631Z,10.90
2022-11-02T18:49:16.904Z,10.90
2022-11-02T18:52:04.335Z,13.35
2022-11-02T18:54:53.027Z,13.18
2022-11-02T18:57:40.367Z,11.73
2022-11-02T19:00:29.368Z,11.73
2022-11-02T19:03:19.054Z,11.05
2022-11-02T19:06:38.979Z,10.15
2022-11-02T19:09:29.539Z,10.15
2022-11-02T19:12:31.148Z,9.60
2022-11-02T19:15:18.699Z,8.00
2022-11-02T19:18:06.625Z,8.18
2022-11-02T19:20:54.051Z,8.52
2022-11-02T19:23:41.648Z,8.30
2022-11-02T19:26:29.177Z,9.73
2022-11-02T19:29:17.331Z,11.23
2022-11-02T19:32:08.156Z,9.00
2022-11-02T19:34:57.974Z,9.57
2022-11-02T19:37:47.006Z,8.73
2022-11-02T19:40:34.557Z,8.25
2022-11-02T19:43:21.993Z,8.80
2022-11-02T19:46:18.920Z,11.90
2022-11-02T19:49:11.102Z,9.57
2022-11-02T19:51:58.386Z,10.38
2022-11-02T19:54:47.316Z,8.30
2022-11-02T19:57:38.509Z,8.52
2022-11-02T20:00:30.736Z,9.23
2022-11-02T20:03:20.885Z,13.35
2022-11-02T20:06:13.772Z,13.35
2022-11-02T20:12:02.868Z,11.50
2022-11-02T20:14:50.823Z,12.60
2022-11-02T20:17:58.446Z,14.77
2022-11-02T20:20:46.430Z,14.90
2022-11-02T20:23:35.850Z,12.30
2022-11-02T20:26:26.814Z,13.85
2022-11-02T20:29:17.251Z,14.38
2022-11-02T20:32:10.415Z,14.02
2022-11-02T20:35:02.496Z,14.82
2022-11-02T20:37:49.904Z,13.02
2022-11-02T20:40:41.401Z,14.30
2022-11-02T20:43:29.194Z,13.55
2022-11-02T20:46:39.927Z,14.98
2022-11-02T20:49:49.496Z,15.37
2022-11-02T20:52:38.595Z,15.00
2022-11-02T20:55:26.412Z,15.13
2022-11-02T20:58:14.233Z,16.00
2022-11-02T21:01:06.700Z,16.15
2022-11-02T21:03:54.203Z,15.18
2022-11-02T21:06:41.688Z,16.40
2022-11-02T21:09:30.648Z,15.73
2022-11-02T21:12:36.895Z,17.05
2022-11-02T21:15:24.170Z,16.42
2022-11-02T21:18:11.813Z,16.38
2022-11-02T21:21:06.453Z,28.00
2022-11-02T21:23:55.992Z,26.45
2022-11-02T21:26:43.486Z,21.00
2022-11-02T21:29:33.578Z,23.65
2022-11-02T21:32:20.885Z,22.15
2022-11-02T21:35:08.903Z,21.38
2022-11-02T21:37:58.550Z,20.20
2022-11-02T21:40:47.616Z,17.73
2022-11-02T21:43:38.894Z,17.50
2022-11-02T21:46:27.114Z,16.45
2022-11-02T21:49:16.559Z,17.30
2022-11-02T21:52:06.369Z,17.10
2022-11-02T21:54:53.530Z,17.63
2022-11-02T21:57:40.868Z,17.00
2022-11-02T22:00:48.320Z,16.27
2022-11-02T22:03:38.219Z,16.38
2022-11-02T22:06:30.780Z,18.85
2022-11-02T22:09:21.260Z,18.50
2022-11-02T22:12:26.950Z,16.15
2022-11-02T22:15:16.495Z,16.35
2022-11-02T22:18:03.933Z,16.10
2022-11-02T22:20:58.458Z,16.73
2022-11-02T22:23:47.622Z,14.93
2022-11-02T22:26:36.460Z,14.68
2022-11-02T22:29:23.709Z,13.88
2022-11-02T22:32:11.019Z,14.23
2022-11-02T22:34:58.144Z,15.02
2022-11-02T22:38:06.044Z,14.05
2022-11-02T22:41:02.351Z,13.93
2022-11-02T22:43:55.537Z,12.50
2022-11-02T22:46:45.067Z,13.45
2022-11-02T22:49:32.674Z,14.00
2022-11-02T22:52:19.740Z,13.35
2022-11-02T22:55:07.055Z,13.55
2022-11-02T22:57:59.676Z,14.43
2022-11-02T23:00:47.157Z,10.82
2022-11-02T23:03:35.141Z,13.38
2022-11-02T23:06:23.692Z,21.95
2022-11-02T23:09:11.717Z,23.13
2022-11-02T23:11:58.799Z,22.58
2022-11-02T23:14:45.950Z,21.55
2022-11-02T23:17:33.103Z,19.77
2022-11-02T23:20:20.243Z,19.40
2022-11-02T23:23:30.800Z,18.50
2022-11-02T23:26:20.680Z,18.50
2022-11-02T23:29:26.929Z,17.08
2022-11-02T23:32:28.016Z,15.80
2022-11-02T23:35:33.624Z,16.27
2022-11-02T23:38:20.702Z,16.30
2022-11-02T23:41:08.164Z,15.85
2022-11-02T23:44:14.005Z,16.23
2022-11-02T23:47:01.300Z,15.27
2022-11-02T23:49:48.558Z,15.48
2022-11-02T23:52:55.044Z,15.07
2022-11-02T23:56:01.795Z,14.30
2022-11-02T23:59:06.470Z,15.98
